Time;durP1;ratioP1;P1;durP2;ratioP2;P2;SDS_P1;SDS_P2;PMS_P1;PMS_P2;Temp;Humidity;BMP_temperature;BMP_pressure;BME280_temperature;BME280_humidity;BME280_pressure;Samples;Min_cycle;Max_cycle;Signal;HPM_P1;HPM_P2
2021/07/30 00:01:07;;;;;;;7.63;4.10;;;17.40;99.90;;;;;;5013040;28;20033;-65
2021/07/30 00:03:33;;;;;;;5.82;3.55;;;17.20;99.90;;;;;;5012926;28;20022;-67
2021/07/30 00:05:59;;;;;;;6.32;3.45;;;17.20;99.90;;;;;;5013008;28;20471;-65
2021/07/30 00:08:25;;;;;;;6.40;2.85;;;17.10;99.90;;;;;;5012907;28;20486;-66
2021/07/30 00:10:54;;;;;;;5.13;2.78;;;17.20;99.90;;;;;;5012919;28;20077;-64
2021/07/30 00:13:21;;;;;;;5.22;2.97;;;17.30;99.90;;;;;;5012864;28;20479;-65
2021/07/30 00:15:47;;;;;;;5.07;2.83;;;17.30;99.90;;;;;;5012886;28;20026;-65
2021/07/30 00:18:13;;;;;;;5.85;2.90;;;17.30;99.90;;;;;;5012533;28;20033;-67
2021/07/30 00:20:39;;;;;;;4.60;2.60;;;17.40;99.90;;;;;;5012576;28;20017;-66
2021/07/30 00:23:05;;;;;;;7.63;3.05;;;17.40;99.90;;;;;;5012665;28;20088;-66
2021/07/30 00:25:31;;;;;;;4.55;2.97;;;17.40;99.90;;;;;;5012753;28;20032;-65
2021/07/30 00:27:56;;;;;;;8.98;3.00;;;17.50;99.90;;;;;;5011304;28;20041;-65
2021/07/30 00:30:22;;;;;;;3.83;2.50;;;17.50;99.90;;;;;;5012494;28;20069;-65
2021/07/30 00:32:48;;;;;;;7.53;2.90;;;17.50;99.90;;;;;;5011259;28;20042;-65
2021/07/30 00:35:14;;;;;;;4.38;2.70;;;17.60;99.90;;;;;;5012715;28;20038;-65
2021/07/30 00:37:40;;;;;;;5.70;2.75;;;17.60;99.90;;;;;;5012599;28;20380;-65
2021/07/30 00:40:07;;;;;;;4.25;2.67;;;17.60;99.90;;;;;;5011337;28;20427;-65
2021/07/30 00:42:33;;;;;;;8.77;2.83;;;17.60;99.90;;;;;;5011144;28;20130;-65
2021/07/30 00:45:00;;;;;;;4.57;2.75;;;17.60;99.90;;;;;;5012303;28;20092;-65
2021/07/30 00:47:28;;;;;;;5.85;3.20;;;17.60;99.90;;;;;;5010868;28;20034;-64
2021/07/30 00:49:56;;;;;;;6.32;3.00;;;17.60;99.90;;;;;;5011356;28;20038;-64
2021/07/30 00:52:27;;;;;;;7.30;3.47;;;17.70;99.90;;;;;;5011065;28;20037;-64
2021/07/30 00:54:55;;;;;;;5.85;2.92;;;17.70;99.90;;;;;;5012619;28;20033;-64
2021/07/30 00:57:22;;;;;;;8.52;3.70;;;17.70;99.90;;;;;;5011833;28;20034;-65
2021/07/30 00:59:50;;;;;;;8.48;4.35;;;17.70;99.90;;;;;;5011240;28;20044;-64
2021/07/30 01:02:17;;;;;;;7.78;4.57;;;17.70;99.90;;;;;;5010708;28;20057;-64
2021/07/30 01:04:43;;;;;;;5.53;3.50;;;17.70;99.90;;;;;;5012099;28;20495;-64
2021/07/30 01:07:09;;;;;;;5.90;3.33;;;17.60;99.90;;;;;;5010879;28;20157;-64
2021/07/30 01:09:34;;;;;;;4.57;2.80;;;17.60;99.90;;;;;;5013367;28;20092;-64
2021/07/30 01:12:02;;;;;;;6.60;2.83;;;17.60;99.90;;;;;;5016126;28;20061;-64
2021/07/30 01:14:28;;;;;;;5.30;2.83;;;17.60;99.90;;;;;;5015829;28;20069;-64
2021/07/30 01:16:54;;;;;;;5.03;2.72;;;17.50;99.90;;;;;;5031388;28;20034;-64
2021/07/30 01:19:24;;;;;;;6.28;2.95;;;17.50;99.90;;;;;;5015736;28;20030;-64
2021/07/30 01:21:53;;;;;;;6.50;3.10;;;17.40;99.90;;;;;;5014670;28;20029;-64
2021/07/30 01:24:21;;;;;;;7.05;3.03;;;17.40;99.90;;;;;;5015627;28;20096;-64
2021/07/30 01:26:49;;;;;;;4.82;2.88;;;17.30;99.90;;;;;;5014519;28;20029;-64
2021/07/30 01:29:15;;;;;;;5.90;3.20;;;17.30;99.90;;;;;;5015952;28;20030;-64
2021/07/30 01:31:41;;;;;;;6.57;3.03;;;17.30;99.90;;;;;;5015842;28;20116;-64
2021/07/30 01:34:07;;;;;;;4.22;2.70;;;17.20;99.90;;;;;;5015644;28;20030;-64
2021/07/30 01:36:33;;;;;;;5.60;2.70;;;17.20;99.90;;;;;;5015902;28;20029;-64
2021/07/30 01:38:58;;;;;;;5.13;2.90;;;17.10;99.90;;;;;;5014598;28;20030;-64
2021/07/30 01:41:25;;;;;;;5.43;3.20;;;17.10;99.90;;;;;;5015373;28;20107;-64
2021/07/30 01:43:50;;;;;;;7.63;3.15;;;17.00;99.90;;;;;;5015654;28;20038;-64
2021/07/30 01:46:16;;;;;;;6.40;3.25;;;17.10;99.90;;;;;;5015201;28;20091;-64
2021/07/30 01:48:42;;;;;;;6.15;3.35;;;17.10;99.90;;;;;;5014329;28;20022;-64
2021/07/30 01:51:08;;;;;;;9.30;3.53;;;17.10;99.90;;;;;;5015432;28;20058;-65
2021/07/30 01:53:34;;;;;;;7.60;3.88;;;17.10;99.90;;;;;;5013862;28;20037;-64
2021/07/30 01:56:04;;;;;;;6.88;3.35;;;17.00;99.90;;;;;;5015535;28;20046;-64
2021/07/30 01:58:36;;;;;;;6.22;3.00;;;17.10;99.90;;;;;;5013637;28;20037;-64
2021/07/30 02:01:03;;;;;;;5.88;2.95;;;17.10;99.90;;;;;;5013946;28;20398;-64
2021/07/30 02:03:29;;;;;;;7.43;3.42;;;17.00;99.90;;;;;;5015162;28;20061;-65
2021/07/30 02:05:56;;;;;;;5.85;2.92;;;17.00;99.90;;;;;;5015052;28;20096;-65
2021/07/30 02:08:21;;;;;;;7.75;3.25;;;17.00;99.90;;;;;;5015100;28;20037;-64
2021/07/30 02:10:47;;;;;;;6.07;3.30;;;16.90;99.90;;;;;;5015162;28;20034;-65
2021/07/30 02:15:57;;;;;;;5.07;3.10;;;16.70;99.90;;;;;;5015178;28;20026;-65
2021/07/30 02:18:23;;;;;;;6.40;3.60;;;16.80;99.90;;;;;;5014557;28;20560;-64
2021/07/30 02:20:48;;;;;;;7.85;3.80;;;16.90;99.90;;;;;;5013741;28;20030;-64
2021/07/30 02:23:14;;;;;;;8.88;3.60;;;16.90;99.90;;;;;;5014790;28;20033;-64
2021/07/30 02:25:40;;;;;;;5.60;3.40;;;16.60;99.90;;;;;;5013710;28;20040;-65
2021/07/30 02:28:06;;;;;;;7.13;3.42;;;16.60;99.90;;;;;;5014842;28;20082;-65
2021/07/30 02:30:32;;;;;;;5.63;2.60;;;16.70;99.90;;;;;;5029661;28;20455;-65
2021/07/30 02:32:57;;;;;;;6.70;3.00;;;16.80;99.90;;;;;;5014686;28;20038;-65
2021/07/30 02:35:23;;;;;;;9.07;3.58;;;16.90;99.90;;;;;;5014654;28;20426;-65
2021/07/30 02:37:49;;;;;;;5.55;3.20;;;16.80;99.90;;;;;;5013205;28;20113;-65
2021/07/30 02:40:15;;;;;;;5.03;2.97;;;16.80;99.90;;;;;;5014442;28;20048;-65
2021/07/30 02:42:40;;;;;;;8.55;2.90;;;16.80;99.90;;;;;;5014317;28;20034;-65
2021/07/30 02:45:07;;;;;;;9.07;3.08;;;16.80;99.90;;;;;;5013107;28;20042;-65
2021/07/30 02:47:33;;;;;;;6.30;3.10;;;16.90;99.90;;;;;;5012818;28;20033;-65
2021/07/30 02:49:58;;;;;;;5.70;3.50;;;16.90;99.90;;;;;;5014553;28;20029;-65
2021/07/30 02:52:24;;;;;;;8.00;3.05;;;16.90;99.90;;;;;;5013038;28;20436;-65
2021/07/30 02:54:50;;;;;;;7.88;3.00;;;16.90;99.90;;;;;;5012960;28;20391;-65
2021/07/30 02:57:15;;;;;;;6.97;3.15;;;16.80;99.90;;;;;;5012781;28;20091;-65
2021/07/30 02:59:41;;;;;;;6.38;3.00;;;16.90;99.90;;;;;;5014244;28;20026;-65
2021/07/30 03:02:07;;;;;;;7.03;3.10;;;16.90;99.90;;;;;;5014351;28;20105;-65
2021/07/30 03:04:33;;;;;;;7.95;3.28;;;17.00;99.90;;;;;;5013797;28;20570;-65
2021/07/30 03:06:58;;;;;;;6.57;2.92;;;16.90;99.90;;;;;;5012970;28;20042;-65
2021/07/30 03:09:24;;;;;;;6.82;3.70;;;16.90;99.90;;;;;;5014022;28;20030;-65
2021/07/30 03:11:50;;;;;;;5.25;2.92;;;16.90;99.90;;;;;;5014143;28;20034;-64
2021/07/30 03:14:15;;;;;;;7.20;3.03;;;16.70;99.90;;;;;;5013529;28;20108;-64
2021/07/30 03:16:41;;;;;;;7.35;3.95;;;16.70;99.90;;;;;;5012890;28;20026;-64
2021/07/30 03:19:07;;;;;;;6.32;2.90;;;16.70;99.90;;;;;;5013901;28;20382;-65
2021/07/30 03:21:32;;;;;;;4.93;3.25;;;16.70;99.90;;;;;;5013720;28;20368;-65
2021/07/30 03:23:58;;;;;;;5.88;3.20;;;16.70;99.90;;;;;;5013792;28;20076;-65
2021/07/30 03:26:24;;;;;;;8.25;3.13;;;16.60;99.90;;;;;;5013505;28;20473;-65
2021/07/30 03:28:50;;;;;;;5.45;2.90;;;16.50;99.90;;;;;;4996304;28;20030;-65
2021/07/30 03:31:16;;;;;;;6.10;2.65;;;16.50;99.90;;;;;;5012083;28;20034;-65
2021/07/30 03:33:42;;;;;;;5.20;2.70;;;16.40;99.90;;;;;;5012896;28;20037;-65
2021/07/30 03:36:08;;;;;;;4.57;2.88;;;16.40;99.90;;;;;;5013438;28;20041;-65
2021/07/30 03:38:33;;;;;;;4.82;2.67;;;16.40;99.90;;;;;;5012929;28;20026;-65
2021/07/30 03:41:04;;;;;;;8.88;3.05;;;16.30;99.90;;;;;;5011960;28;20022;-65
2021/07/30 03:43:31;;;;;;;5.18;3.10;;;16.40;99.90;;;;;;5012456;28;20095;-64
2021/07/30 03:45:57;;;;;;;7.75;2.80;;;16.40;99.90;;;;;;5013013;28;20042;-65
2021/07/30 03:48:23;;;;;;;5.15;2.88;;;16.40;99.90;;;;;;5013042;28;20084;-63
2021/07/30 03:50:48;;;;;;;4.85;3.10;;;16.40;99.90;;;;;;5018387;28;20041;-65
2021/07/30 03:53:14;;;;;;;5.88;2.90;;;16.40;99.90;;;;;;5024191;28;20026;-65
2021/07/30 03:55:40;;;;;;;5.28;2.92;;;16.40;99.90;;;;;;5013122;28;20029;-66
2021/07/30 03:58:05;;;;;;;6.72;3.20;;;16.40;99.90;;;;;;5023345;28;20033;-65
2021/07/30 04:00:31;;;;;;;4.55;2.70;;;16.40;99.90;;;;;;5031277;28;20030;-65
2021/07/30 04:02:57;;;;;;;5.97;3.10;;;16.40;99.90;;;;;;5032969;28;20032;-65
2021/07/30 04:05:23;;;;;;;4.22;2.45;;;16.40;99.90;;;;;;5032576;28;20036;-66
2021/07/30 04:07:49;;;;;;;6.85;3.22;;;16.40;99.90;;;;;;5031387;28;20091;-66
2021/07/30 04:10:14;;;;;;;8.27;2.95;;;16.40;99.90;;;;;;5031601;28;20038;-65
2021/07/30 04:12:40;;;;;;;10.38;2.63;;;16.30;99.90;;;;;;5032562;28;20065;-65
2021/07/30 04:15:07;;;;;;;4.82;2.70;;;16.30;99.90;;;;;;5031323;28;20470;-63
2021/07/30 04:17:33;;;;;;;4.45;2.53;;;16.30;99.90;;;;;;5032539;28;20040;-64
2021/07/30 04:19:59;;;;;;;6.85;2.75;;;16.30;99.90;;;;;;5032268;28;20034;-65
2021/07/30 04:22:24;;;;;;;6.20;2.80;;;16.30;99.90;;;;;;5032135;28;20034;-64
2021/07/30 04:24:50;;;;;;;6.63;3.17;;;16.30;99.90;;;;;;5032568;28;20037;-66
2021/07/30 04:27:16;;;;;;;6.38;2.88;;;16.30;99.90;;;;;;5032246;28;20041;-64
2021/07/30 04:29:42;;;;;;;5.28;2.75;;;16.30;99.90;;;;;;5030839;28;20037;-65
2021/07/30 04:32:10;;;;;;;5.53;3.13;;;16.30;99.90;;;;;;5032392;28;20029;-68
2021/07/30 04:34:40;;;;;;;6.57;2.95;;;16.30;99.90;;;;;;5014566;28;20025;-67
2021/07/30 04:37:07;;;;;;;7.28;4.25;;;16.30;99.90;;;;;;5031919;28;20041;-67
2021/07/30 04:39:34;;;;;;;4.85;2.80;;;16.30;99.90;;;;;;5031914;28;20604;-67
2021/07/30 04:42:00;;;;;;;5.10;2.85;;;16.30;99.90;;;;;;5032367;28;20106;-66
2021/07/30 04:44:26;;;;;;;6.78;3.03;;;16.30;99.90;;;;;;5030700;28;20072;-66
2021/07/30 04:46:52;;;;;;;6.53;3.05;;;16.30;99.90;;;;;;5032030;28;20143;-66
2021/07/30 04:49:17;;;;;;;7.20;2.95;;;16.30;99.90;;;;;;5031947;28;20044;-66
2021/07/30 04:51:43;;;;;;;5.63;2.70;;;16.30;99.90;;;;;;5043444;28;20036;-65
2021/07/30 04:54:09;;;;;;;4.78;2.60;;;16.30;99.90;;;;;;5052003;28;20091;-65
2021/07/30 04:56:34;;;;;;;7.68;3.13;;;16.30;99.90;;;;;;5051578;28;20135;-66
2021/07/30 04:59:00;;;;;;;5.07;2.97;;;16.30;99.90;;;;;;5052081;28;20037;-65
2021/07/30 05:01:26;;;;;;;5.97;2.97;;;16.60;99.90;;;;;;5050685;28;20033;-66
2021/07/30 05:03:51;;;;;;;4.75;3.17;;;16.70;99.90;;;;;;5051836;28;20390;-65
2021/07/30 05:06:21;;;;;;;5.38;3.20;;;16.70;99.90;;;;;;5050494;28;20037;-65
2021/07/30 05:08:47;;;;;;;5.38;2.92;;;16.80;99.90;;;;;;5051715;28;20385;-65
2021/07/30 05:11:14;;;;;;;5.15;2.70;;;16.80;99.90;;;;;;5051878;28;20037;-65
2021/07/30 05:13:41;;;;;;;4.00;2.42;;;16.80;99.90;;;;;;5017693;28;20025;-65
2021/07/30 05:16:09;;;;;;;6.43;2.83;;;16.90;99.90;;;;;;5052031;28;20033;-65
2021/07/30 05:18:36;;;;;;;7.93;3.05;;;16.90;99.90;;;;;;5051476;28;20044;-64
2021/07/30 05:21:13;;;;;;;8.82;3.28;;;17.00;99.90;;;;;;5039532;28;20026;-70
2021/07/30 05:23:40;;;;;;;6.15;3.05;;;17.00;99.90;;;;;;5010565;28;20462;-70
2021/07/30 05:26:05;;;;;;;5.60;3.30;;;17.00;99.90;;;;;;5011233;28;20034;-69
2021/07/30 05:28:32;;;;;;;7.18;3.97;;;17.00;99.90;;;;;;5010391;28;20372;-70
2021/07/30 05:30:58;;;;;;;7.45;3.40;;;17.00;99.90;;;;;;5009724;28;20076;-71
2021/07/30 05:33:26;;;;;;;8.98;3.75;;;17.10;99.90;;;;;;4994031;28;20038;-71
2021/07/30 05:35:52;;;;;;;4.65;3.15;;;17.20;99.90;;;;;;5010564;28;20022;-69
2021/07/30 05:38:18;;;;;;;7.03;3.97;;;17.40;99.90;;;;;;5011826;28;20092;-69
2021/07/30 05:40:45;;;;;;;7.85;4.32;;;17.40;99.90;;;;;;5010528;28;20030;-70
2021/07/30 05:43:11;;;;;;;9.90;3.97;;;17.50;99.90;;;;;;5010560;28;20494;-70
2021/07/30 05:45:37;;;;;;;6.57;4.93;;;17.50;99.90;;;;;;4993962;28;20060;-70
2021/07/30 05:48:04;;;;;;;9.48;4.90;;;17.70;99.90;;;;;;5011934;28;20125;-70
2021/07/30 05:50:29;;;;;;;8.85;4.50;;;17.80;99.90;;;;;;5011407;28;20121;-70
2021/07/30 05:52:56;;;;;;;7.95;4.80;;;18.00;99.90;;;;;;5012047;28;20148;-70
2021/07/30 05:55:22;;;;;;;9.32;4.57;;;18.00;99.90;;;;;;4995380;28;20033;-70
2021/07/30 05:57:47;;;;;;;7.25;4.20;;;18.10;99.90;;;;;;5017004;28;20034;-69
2021/07/30 06:00:14;;;;;;;8.35;4.03;;;18.10;99.90;;;;;;5052417;28;20108;-70
2021/07/30 06:02:39;;;;;;;8.43;4.07;;;18.10;99.90;;;;;;5036853;28;20059;-70
2021/07/30 06:05:06;;;;;;;4.30;2.92;;;18.20;99.90;;;;;;5037408;28;20533;-70
2021/07/30 06:07:32;;;;;;;10.57;4.43;;;18.20;99.90;;;;;;5053416;28;20068;-70
2021/07/30 06:09:58;;;;;;;20.40;5.53;;;18.20;99.90;;;;;;5053561;28;20029;-71
2021/07/30 06:12:24;;;;;;;7.75;3.80;;;18.10;99.90;;;;;;5054501;28;20515;-70
2021/07/30 06:14:50;;;;;;;5.43;3.05;;;18.20;99.90;;;;;;5053619;28;20048;-76
2021/07/30 06:17:16;;;;;;;8.73;3.20;;;18.10;99.90;;;;;;5054666;28;20127;-69
2021/07/30 06:19:42;;;;;;;5.30;2.50;;;18.20;99.90;;;;;;5053142;28;20025;-71
2021/07/30 06:22:08;;;;;;;4.63;2.72;;;18.10;99.90;;;;;;5054349;28;20040;-70
2021/07/30 06:24:37;;;;;;;13.55;3.28;;;18.20;99.90;;;;;;5053207;28;20454;-70
2021/07/30 06:27:04;;;;;;;4.15;2.65;;;18.30;99.90;;;;;;5054363;28;20393;-70
2021/07/30 06:29:30;;;;;;;5.78;3.25;;;18.20;99.90;;;;;;5053362;28;20029;-69
2021/07/30 06:31:55;;;;;;;4.95;2.80;;;18.30;99.90;;;;;;5054535;28;20532;-69
2021/07/30 06:34:21;;;;;;;5.95;2.53;;;18.40;99.90;;;;;;5053075;28;20037;-70
2021/07/30 06:36:47;;;;;;;4.45;2.90;;;18.60;99.90;;;;;;5054364;28;20029;-70
2021/07/30 06:39:12;;;;;;;4.68;2.78;;;18.60;99.90;;;;;;5054217;28;20171;-69
2021/07/30 06:41:38;;;;;;;6.40;2.88;;;18.50;99.90;;;;;;5052987;28;20033;-70
2021/07/30 06:44:04;;;;;;;4.30;2.70;;;18.60;99.90;;;;;;5052796;28;20021;-70
2021/07/30 06:46:32;;;;;;;5.90;2.60;;;18.60;99.90;;;;;;5054085;28;20033;-70
2021/07/30 06:48:58;;;;;;;4.68;2.35;;;18.70;99.90;;;;;;5054419;28;20044;-70
2021/07/30 06:51:24;;;;;;;4.18;2.55;;;18.70;99.90;;;;;;5053719;28;20452;-70
2021/07/30 06:53:49;;;;;;;5.13;2.80;;;18.90;99.90;;;;;;5052865;28;20033;-68
2021/07/30 06:56:15;;;;;;;6.40;2.92;;;19.20;99.90;;;;;;5053999;28;20064;-69
2021/07/30 06:58:41;;;;;;;5.28;2.95;;;19.20;99.90;;;;;;5053676;28;20033;-70
2021/07/30 07:01:07;;;;;;;7.28;3.25;;;19.30;99.90;;;;;;5053819;28;20068;-70
2021/07/30 07:03:33;;;;;;;5.00;2.90;;;19.40;99.90;;;;;;5052458;28;20029;-70
2021/07/30 07:05:59;;;;;;;8.27;3.00;;;19.40;99.90;;;;;;5033177;28;20037;-70
2021/07/30 07:08:26;;;;;;;5.28;2.95;;;19.30;99.90;;;;;;5032773;28;20622;-70
2021/07/30 07:10:51;;;;;;;6.20;2.50;;;19.20;99.90;;;;;;5035073;28;20124;-69
2021/07/30 07:13:18;;;;;;;4.82;2.63;;;19.20;99.90;;;;;;5033597;28;20542;-69
2021/07/30 07:15:45;;;;;;;6.47;3.05;;;19.30;99.90;;;;;;5033650;28;20048;-69
2021/07/30 07:18:12;;;;;;;4.15;2.75;;;19.30;99.90;;;;;;5033439;28;20091;-69
2021/07/30 07:20:41;;;;;;;3.85;2.58;;;19.30;99.90;;;;;;5033352;28;20117;-70
2021/07/30 07:23:07;;;;;;;3.72;2.63;;;19.50;99.90;;;;;;5032501;28;20393;-69
2021/07/30 07:25:33;;;;;;;8.85;4.03;;;19.50;99.90;;;;;;5033639;28;20037;-70
2021/07/30 07:27:59;;;;;;;4.95;2.90;;;19.60;99.90;;;;;;5033275;28;20038;-69
2021/07/30 07:30:26;;;;;;;7.03;3.20;;;19.60;99.90;;;;;;5033666;28;20033;-69
2021/07/30 07:32:51;;;;;;;5.18;2.53;;;19.70;99.90;;;;;;5033435;28;20124;-70
2021/07/30 07:35:17;;;;;;;6.18;2.80;;;19.80;99.90;;;;;;5033326;28;20113;-68
2021/07/30 07:37:43;;;;;;;9.98;2.50;;;20.00;99.90;;;;;;5032867;28;20478;-70
2021/07/30 07:40:09;;;;;;;4.15;2.45;;;20.00;99.90;;;;;;5033525;28;20026;-70
2021/07/30 07:42:35;;;;;;;4.95;2.63;;;20.10;99.90;;;;;;5031951;28;20029;-70
2021/07/30 07:45:01;;;;;;;6.10;3.20;;;20.30;99.90;;;;;;5031618;28;20057;-68
2021/07/30 07:47:28;;;;;;;5.28;2.72;;;20.40;99.90;;;;;;5031916;28;20029;-72
2021/07/30 07:49:53;;;;;;;7.93;2.70;;;20.40;99.90;;;;;;5023480;28;20378;-72
2021/07/30 07:52:19;;;;;;;4.93;2.83;;;20.40;99.90;;;;;;5014743;28;20041;-71
2021/07/30 07:54:46;;;;;;;5.53;2.67;;;20.50;99.90;;;;;;5013133;28;20128;-72
2021/07/30 07:57:12;;;;;;;4.72;2.58;;;20.40;99.90;;;;;;5011845;28;20066;-72
2021/07/30 07:59:38;;;;;;;4.88;2.42;;;20.60;99.90;;;;;;5013152;28;20060;-72
2021/07/30 08:02:08;;;;;;;7.47;2.92;;;20.70;99.90;;;;;;5011856;28;20030;-71
2021/07/30 08:04:34;;;;;;;5.88;2.90;;;20.70;99.90;;;;;;5012217;28;20037;-72
2021/07/30 08:07:03;;;;;;;6.13;2.92;;;20.70;99.90;;;;;;5011857;28;20034;-71
2021/07/30 08:09:31;;;;;;;5.47;2.70;;;20.70;99.90;;;;;;5012971;28;20030;-71
2021/07/30 08:11:57;;;;;;;4.25;2.70;;;20.80;99.90;;;;;;5012881;28;20041;-73
2021/07/30 08:14:23;;;;;;;6.82;2.70;;;21.00;99.90;;;;;;5012875;28;20026;-72
2021/07/30 08:16:49;;;;;;;6.13;3.00;;;21.10;99.90;;;;;;5012887;28;20376;-71
2021/07/30 08:19:16;;;;;;;6.65;2.92;;;21.10;99.90;;;;;;5012503;28;20034;-70
2021/07/30 08:21:42;;;;;;;5.28;3.03;;;21.00;99.90;;;;;;5012481;28;20390;-71
2021/07/30 08:24:08;;;;;;;6.75;3.03;;;20.90;99.90;;;;;;5012424;28;20029;-70
2021/07/30 08:26:33;;;;;;;7.93;2.70;;;21.10;99.90;;;;;;5012824;28;20061;-71
2021/07/30 08:28:59;;;;;;;4.47;2.88;;;21.30;99.90;;;;;;5012696;28;20426;-71
2021/07/30 08:31:26;;;;;;;8.75;3.45;;;21.30;99.90;;;;;;5012534;28;20033;-71
2021/07/30 08:33:52;;;;;;;6.18;2.30;;;21.40;99.90;;;;;;5012301;28;20095;-71
2021/07/30 08:36:18;;;;;;;4.65;2.78;;;21.50;99.90;;;;;;5012482;28;20502;-71
2021/07/30 08:38:44;;;;;;;5.55;2.40;;;21.70;99.90;;;;;;5011159;28;20045;-72
2021/07/30 08:41:10;;;;;;;3.85;2.50;;;21.70;99.90;;;;;;5011671;28;20030;-71
2021/07/30 08:43:36;;;;;;;5.75;2.35;;;21.80;99.90;;;;;;5012443;28;20510;-71
2021/07/30 08:46:02;;;;;;;4.13;2.65;;;21.80;99.90;;;;;;5012126;28;20042;-71
2021/07/30 08:48:33;;;;;;;4.75;2.28;;;21.90;99.90;;;;;;5012367;28;20038;-72
2021/07/30 08:51:02;;;;;;;4.63;2.30;;;21.90;99.90;;;;;;5012481;28;20041;-71
2021/07/30 08:53:28;;;;;;;4.15;2.30;;;21.90;99.90;;;;;;5011256;28;20046;-71
2021/07/30 08:55:54;;;;;;;6.13;2.17;;;22.00;99.90;;;;;;5012040;28;20100;-71
2021/07/30 08:58:20;;;;;;;7.82;2.42;;;22.20;99.90;;;;;;5011006;28;20153;-71
2021/07/30 09:00:47;;;;;;;4.32;2.70;;;22.10;99.90;;;;;;5011277;28;20026;-71
2021/07/30 09:03:13;;;;;;;8.35;2.20;;;22.20;99.90;;;;;;5011413;28;20033;-72
2021/07/30 09:05:40;;;;;;;5.38;3.17;;;22.40;99.90;;;;;;5012105;28;20034;-71
2021/07/30 09:08:08;;;;;;;5.85;2.20;;;22.40;99.90;;;;;;5026048;28;20111;-72
2021/07/30 09:10:37;;;;;;;9.30;2.70;;;22.40;99.90;;;;;;5050846;28;20078;-72
2021/07/30 09:13:25;;;;;;;6.78;2.10;;;22.50;99.90;;;;;;5051688;28;20112;-72
2021/07/30 09:16:10;;;;;;;3.97;2.33;;;22.40;99.90;;;;;;5050783;28;20020;-71
2021/07/30 09:18:42;;;;;;;6.32;2.03;;;22.40;99.90;;;;;;5050161;28;20389;-71
2021/07/30 09:21:34;;;;;;;4.63;2.40;;;22.50;99.90;;;;;;5051751;28;20044;-72
2021/07/30 09:24:08;;;;;;;5.28;2.42;;;22.50;99.90;;;;;;5051827;28;20036;-71
2021/07/30 09:26:53;;;;;;;3.70;2.13;;;22.50;99.90;;;;;;5050814;28;20067;-71
2021/07/30 09:29:22;;;;;;;4.95;2.47;;;22.70;99.90;;;;;;5051907;28;20025;-71
2021/07/30 09:31:54;;;;;;;4.53;2.28;;;22.90;99.90;;;;;;5055073;28;20044;-71
2021/07/30 09:34:32;;;;;;;2.83;1.60;;;23.10;99.00;;;;;;5055343;28;20071;-71
2021/07/30 09:37:07;;;;;;;4.60;2.25;;;23.00;98.40;;;;;;5055305;28;20037;-72
2021/07/30 09:39:32;;;;;;;4.45;2.17;;;23.20;98.30;;;;;;5054081;28;20547;-71
2021/07/30 09:42:05;;;;;;;4.18;2.38;;;23.30;97.50;;;;;;5055290;28;20041;-71
2021/07/30 09:44:52;;;;;;;3.28;1.90;;;23.40;97.90;;;;;;5037919;28;20037;-71
2021/07/30 09:47:29;;;;;;;4.85;1.98;;;23.50;97.00;;;;;;5055551;28;20083;-71
2021/07/30 09:50:04;;;;;;;4.63;2.30;;;23.40;97.70;;;;;;5053773;28;20033;-71
2021/07/30 09:52:36;;;;;;;5.18;2.13;;;23.50;97.00;;;;;;5038416;28;20090;-71
2021/07/30 09:55:06;;;;;;;4.07;2.05;;;23.50;97.20;;;;;;5054876;28;20486;-71
2021/07/30 09:57:35;;;;;;;6.80;2.13;;;23.50;96.80;;;;;;5055487;28;20397;-70
2021/07/30 10:00:06;;;;;;;5.28;2.33;;;23.70;97.50;;;;;;5037526;28;20025;-71
2021/07/30 10:02:42;;;;;;;4.20;2.03;;;23.70;96.50;;;;;;5054947;28;20026;-71
2021/07/30 10:05:12;;;;;;;4.68;2.47;;;23.70;96.70;;;;;;5037399;28;20363;-72
2021/07/30 10:07:41;;;;;;;5.70;2.35;;;23.80;97.30;;;;;;5037600;28;20060;-71
2021/07/30 10:12:49;;;;;;;3.85;2.00;;;24.00;96.80;;;;;;5054793;28;20029;-72
2021/07/30 10:15:16;;;;;;;3.58;2.05;;;23.90;96.40;;;;;;5053839;28;20041;-72
2021/07/30 10:17:47;;;;;;;4.22;2.58;;;24.00;96.50;;;;;;5054562;28;20390;-71
2021/07/30 10:20:17;;;;;;;4.80;2.40;;;24.00;96.30;;;;;;5053395;28;20525;-73
2021/07/30 10:22:55;;;;;;;5.10;1.88;;;24.10;97.40;;;;;;5054476;28;20064;-69
2021/07/30 10:25:39;;;;;;;4.55;2.30;;;24.30;97.00;;;;;;5054976;28;20039;-70
2021/07/30 10:28:32;;;;;;;6.82;2.67;;;24.70;96.40;;;;;;5054307;28;20039;-72
2021/07/30 10:31:08;;;;;;;5.85;2.40;;;24.80;95.70;;;;;;5053197;28;20040;-73
2021/07/30 10:33:34;;;;;;;4.05;2.28;;;24.80;95.50;;;;;;5054851;28;20398;-70
2021/07/30 10:36:28;;;;;;;5.88;3.58;;;25.00;95.10;;;;;;5054169;28;20032;-72
2021/07/30 10:39:16;;;;;;;5.38;2.40;;;24.90;96.00;;;;;;5052079;28;20528;-71
2021/07/30 10:42:11;;;;;;;3.80;2.20;;;24.90;95.50;;;;;;5052042;28;20385;-70
2021/07/30 10:45:19;;;;;;;5.53;2.45;;;24.90;95.30;;;;;;5052833;28;20041;-71
2021/07/30 10:47:44;;;;;;;3.08;2.08;;;25.00;95.10;;;;;;5052902;28;20501;-68
2021/07/30 10:50:46;;;;;;;5.28;2.17;;;25.20;95.40;;;;;;5054171;28;20044;-68
2021/07/30 10:53:31;;;;;;;3.90;2.33;;;25.20;95.10;;;;;;5044910;28;20033;-68
2021/07/30 10:56:02;;;;;;;4.85;2.72;;;25.10;95.00;;;;;;5063536;28;20037;-67
2021/07/30 10:58:40;;;;;;;5.43;2.63;;;25.10;95.30;;;;;;5051405;28;20078;-68
2021/07/30 11:01:21;;;;;;;4.30;2.65;;;25.40;95.60;;;;;;5014327;28;20129;-68
2021/07/30 11:03:52;;;;;;;4.75;2.65;;;25.50;96.20;;;;;;5014359;28;20471;-68
2021/07/30 11:06:50;;;;;;;6.18;2.67;;;25.70;95.20;;;;;;5014078;28;20478;-67
2021/07/30 11:09:17;;;;;;;3.85;2.55;;;25.40;94.80;;;;;;5043998;28;20051;-68
2021/07/30 11:11:55;;;;;;;3.25;2.17;;;25.30;95.20;;;;;;5052651;28;20033;-68
2021/07/30 11:14:30;;;;;;;3.35;2.50;;;25.60;94.70;;;;;;5053694;28;20039;-68
2021/07/30 11:17:00;;;;;;;6.13;2.58;;;25.50;93.90;;;;;;5052083;28;20386;-68
2021/07/30 11:19:31;;;;;;;4.07;2.20;;;25.40;94.10;;;;;;5053400;28;20041;-68
2021/07/30 11:22:00;;;;;;;7.72;2.65;;;25.50;94.80;;;;;;5035967;28;20017;-68
2021/07/30 11:24:26;;;;;;;6.30;2.38;;;25.70;93.80;;;;;;5053720;28;20094;-68
2021/07/30 11:26:52;;;;;;;3.38;2.00;;;25.80;93.90;;;;;;5053073;28;20024;-68
2021/07/30 11:29:23;;;;;;;4.82;2.33;;;26.00;93.60;;;;;;5053186;28;20060;-67
2021/07/30 11:32:05;;;;;;;6.10;2.60;;;26.10;93.60;;;;;;5052815;28;20126;-67
2021/07/30 11:34:37;;;;;;;5.30;2.60;;;26.20;92.80;;;;;;5053273;28;20033;-68
2021/07/30 11:37:11;;;;;;;5.10;2.15;;;26.30;92.90;;;;;;5051765;28;20103;-68
2021/07/30 11:39:45;;;;;;;6.22;2.65;;;26.40;93.10;;;;;;5051999;28;20517;-68
2021/07/30 11:42:34;;;;;;;5.30;2.08;;;26.40;92.40;;;;;;5053343;28;20021;-68
2021/07/30 11:45:07;;;;;;;4.45;2.28;;;26.50;92.30;;;;;;5051466;28;20524;-68
2021/07/30 11:47:35;;;;;;;6.00;2.45;;;26.20;92.70;;;;;;5052107;28;20079;-68
2021/07/30 11:50:10;;;;;;;4.43;2.03;;;26.40;92.50;;;;;;5051493;28;20069;-68
2021/07/30 11:52:38;;;;;;;4.90;2.10;;;26.60;92.30;;;;;;5053140;28;20048;-68
2021/07/30 11:55:22;;;;;;;3.70;1.98;;;26.60;92.00;;;;;;5051329;28;20033;-69
2021/07/30 11:57:52;;;;;;;3.20;1.98;;;26.80;92.20;;;;;;5051269;28;20393;-68
2021/07/30 12:00:29;;;;;;;4.60;2.50;;;26.80;91.70;;;;;;5052763;28;20519;-68
2021/07/30 12:02:56;;;;;;;4.10;2.20;;;27.10;91.10;;;;;;5051405;28;20037;-68
2021/07/30 12:05:34;;;;;;;4.03;2.38;;;27.00;91.00;;;;;;5051452;28;20059;-68
2021/07/30 12:08:00;;;;;;;3.58;2.25;;;27.10;90.30;;;;;;5051316;28;20061;-68
2021/07/30 12:10:28;;;;;;;7.05;2.50;;;27.30;90.90;;;;;;5051807;28;20084;-69
2021/07/30 12:12:56;;;;;;;6.10;2.67;;;27.70;89.20;;;;;;5051114;28;20525;-68
2021/07/30 12:15:25;;;;;;;3.38;2.13;;;27.80;88.70;;;;;;5052435;28;20442;-69
2021/07/30 12:18:02;;;;;;;3.72;2.40;;;27.80;90.00;;;;;;5052271;28;20029;-68
2021/07/30 12:20:33;;;;;;;5.82;2.10;;;27.70;88.70;;;;;;5051482;28;20061;-68
2021/07/30 12:23:15;;;;;;;4.78;2.58;;;27.50;89.50;;;;;;5052160;28;20037;-67
2021/07/30 12:25:48;;;;;;;3.40;2.33;;;27.20;90.10;;;;;;5051457;28;20025;-68
2021/07/30 12:28:16;;;;;;;3.47;2.10;;;27.00;90.00;;;;;;5052300;28;20021;-68
2021/07/30 12:30:46;;;;;;;5.03;2.15;;;27.50;89.20;;;;;;5052429;28;20042;-68
2021/07/30 12:33:29;;;;;;;5.45;2.33;;;27.60;88.70;;;;;;5050870;28;20052;-68
2021/07/30 12:36:08;;;;;;;6.63;2.78;;;27.30;89.00;;;;;;5052204;28;20187;-68
2021/07/30 12:38:53;;;;;;;4.90;2.58;;;27.10;89.10;;;;;;5052373;28;20040;-68
2021/07/30 12:41:30;;;;;;;3.35;2.00;;;26.80;90.30;;;;;;5052105;28;20033;-69
2021/07/30 12:44:14;;;;;;;5.28;2.63;;;26.80;90.50;;;;;;5052178;28;20517;-68
2021/07/30 12:46:50;;;;;;;6.72;3.70;;;27.10;90.60;;;;;;5052438;28;20029;-68
2021/07/30 12:49:34;;;;;;;3.50;2.47;;;27.50;90.50;;;;;;5052359;28;20028;-68
2021/07/30 12:52:12;;;;;;;6.45;2.45;;;27.70;90.40;;;;;;5051584;28;20043;-68
2021/07/30 12:54:38;;;;;;;3.65;2.28;;;28.20;90.40;;;;;;5052309;28;20036;-67
2021/07/30 12:57:04;;;;;;;6.93;2.40;;;27.90;88.90;;;;;;5051859;28;20033;-68
2021/07/30 12:59:56;;;;;;;7.00;2.50;;;27.80;89.60;;;;;;5052149;28;20025;-68